Time;durP1;ratioP1;P1;durP2;ratioP2;P2;SDS_P1;SDS_P2;PMS_P1;PMS_P2;Temp;Humidity;BMP_temperature;BMP_pressure;BME280_temperature;BME280_humidity;BME280_pressure;Samples;Min_cycle;Max_cycle;Signal;HPM_P1;HPM_P2
2022/01/29 00:00:06;;;;;;;16.65;7.25;;;4.00;99.90;;;;;;6219039;23;20015;-86
2022/01/29 00:02:32;;;;;;;11.10;6.97;;;4.10;99.90;;;;;;6219104;23;20004;-86
2022/01/29 00:04:58;;;;;;;10.20;6.90;;;4.00;99.90;;;;;;6246055;23;20007;-86
2022/01/29 00:07:23;;;;;;;11.02;7.07;;;4.00;99.90;;;;;;6218974;23;20004;-86
2022/01/29 00:09:49;;;;;;;12.00;7.15;;;4.00;99.90;;;;;;6219142;23;20012;-86
2022/01/29 00:12:15;;;;;;;12.38;6.72;;;4.00;99.90;;;;;;6219184;23;20012;-86
2022/01/29 00:14:41;;;;;;;10.15;6.82;;;4.00;99.90;;;;;;6245887;23;20001;-86
2022/01/29 00:17:06;;;;;;;10.80;6.80;;;4.10;99.90;;;;;;6219145;23;20008;-86
2022/01/29 00:19:32;;;;;;;13.23;7.28;;;4.00;99.90;;;;;;6219036;23;20011;-86
2022/01/29 00:22:00;;;;;;;11.07;6.97;;;4.00;99.90;;;;;;6219067;23;20408;-86
2022/01/29 00:24:25;;;;;;;12.77;7.65;;;4.00;99.90;;;;;;6219031;23;20005;-86
2022/01/29 00:26:51;;;;;;;12.90;7.22;;;4.00;99.90;;;;;;6219029;23;20011;-86
2022/01/29 00:29:21;;;;;;;12.98;7.38;;;4.00;99.90;;;;;;6218979;23;20004;-86
2022/01/29 00:31:46;;;;;;;12.40;7.15;;;4.00;99.90;;;;;;6219055;23;20031;-85
2022/01/29 00:34:13;;;;;;;13.68;7.47;;;4.00;99.90;;;;;;6219758;23;20027;-86
2022/01/29 00:36:39;;;;;;;12.30;6.68;;;4.00;99.90;;;;;;6219010;23;20000;-85
2022/01/29 00:39:05;;;;;;;15.48;7.50;;;4.00;99.90;;;;;;6218811;23;20006;-86
2022/01/29 00:41:31;;;;;;;12.52;7.85;;;4.00;99.90;;;;;;6218972;23;20083;-86
2022/01/29 00:43:57;;;;;;;10.80;7.28;;;4.00;99.90;;;;;;6218991;23;20007;-86
2022/01/29 00:46:22;;;;;;;13.65;7.43;;;4.00;99.90;;;;;;6245809;23;20046;-86
2022/01/29 00:48:48;;;;;;;12.27;7.22;;;4.00;99.90;;;;;;6219608;23;20437;-86
2022/01/29 00:51:14;;;;;;;12.48;7.43;;;4.00;99.90;;;;;;6248179;23;20008;-85
2022/01/29 00:53:39;;;;;;;14.38;7.38;;;4.00;99.90;;;;;;6221017;23;20137;-86
2022/01/29 00:56:07;;;;;;;12.50;7.38;;;4.00;99.90;;;;;;6220950;23;20443;-86
2022/01/29 00:58:33;;;;;;;10.15;7.18;;;4.00;99.90;;;;;;6221082;23;20008;-85
2022/01/29 01:01:00;;;;;;;12.23;7.22;;;3.90;99.90;;;;;;6247767;23;20007;-86
2022/01/29 01:03:26;;;;;;;19.05;7.80;;;4.00;99.90;;;;;;6220791;23;19997;-86
2022/01/29 01:05:52;;;;;;;11.57;7.60;;;4.00;99.90;;;;;;6220666;23;20014;-86
2022/01/29 01:08:17;;;;;;;11.88;7.30;;;4.00;99.90;;;;;;6220752;23;20062;-86
2022/01/29 01:10:43;;;;;;;12.52;7.32;;;4.00;99.90;;;;;;6220630;23;20011;-85
2022/01/29 01:13:09;;;;;;;14.57;7.20;;;4.00;99.90;;;;;;6220751;23;20015;-86
2022/01/29 01:15:35;;;;;;;13.85;8.25;;;4.00;99.90;;;;;;6221720;23;20137;-86
2022/01/29 01:18:01;;;;;;;14.63;7.93;;;4.00;99.90;;;;;;6220664;23;20004;-85
2022/01/29 01:20:27;;;;;;;13.70;7.50;;;4.00;99.90;;;;;;6247833;23;20000;-85
2022/01/29 01:22:52;;;;;;;10.88;6.90;;;4.00;99.90;;;;;;6220708;23;20000;-85
2022/01/29 01:25:18;;;;;;;12.40;7.55;;;4.00;99.90;;;;;;6220746;23;20463;-85
2022/01/29 01:27:44;;;;;;;12.60;7.10;;;4.00;99.90;;;;;;6220673;23;20004;-85
2022/01/29 01:30:10;;;;;;;12.07;7.32;;;4.00;99.90;;;;;;6220553;23;20004;-85
2022/01/29 01:32:37;;;;;;;13.30;7.10;;;4.00;99.90;;;;;;6220558;23;20004;-86
2022/01/29 01:35:18;;;;;;;10.90;7.05;;;4.00;99.90;;;;;;6220505;23;20429;-86
2022/01/29 01:37:50;;;;;;;10.07;7.03;;;4.00;99.90;;;;;;6247369;23;20436;-86
2022/01/29 01:40:17;;;;;;;11.82;6.90;;;4.00;99.90;;;;;;6220367;23;20004;-85
2022/01/29 01:42:42;;;;;;;12.15;6.68;;;4.00;99.90;;;;;;6220338;23;20004;-85
2022/01/29 01:45:08;;;;;;;11.20;6.90;;;4.00;99.90;;;;;;6220387;23;20373;-86
2022/01/29 01:47:34;;;;;;;13.93;7.43;;;4.00;99.90;;;;;;6220096;23;20066;-86
2022/01/29 01:50:00;;;;;;;11.38;7.28;;;4.00;99.90;;;;;;6220298;23;20004;-85
2022/01/29 01:52:26;;;;;;;9.50;6.45;;;4.00;99.90;;;;;;6220343;23;20008;-85
2022/01/29 01:54:51;;;;;;;11.00;6.78;;;4.00;99.90;;;;;;6220173;23;20142;-85
2022/01/29 01:57:17;;;;;;;12.07;6.97;;;4.00;99.90;;;;;;6220251;23;20040;-85
2022/01/29 01:59:44;;;;;;;11.30;7.55;;;4.00;99.90;;;;;;6219960;23;20004;-85
2022/01/29 02:02:09;;;;;;;11.68;6.75;;;4.00;99.90;;;;;;6247095;23;20067;-85
2022/01/29 02:04:36;;;;;;;13.30;7.00;;;3.90;99.90;;;;;;6220214;23;20049;-85
2022/01/29 02:07:02;;;;;;;10.38;6.93;;;4.00;99.90;;;;;;6220223;23;19996;-85
2022/01/29 02:09:29;;;;;;;12.90;7.10;;;4.00;99.90;;;;;;6220238;23;20095;-85
2022/01/29 02:11:57;;;;;;;10.70;6.60;;;4.00;99.90;;;;;;6220172;23;20008;-85
2022/01/29 02:14:28;;;;;;;12.43;7.10;;;3.90;99.90;;;;;;6247117;23;20004;-85
2022/01/29 02:16:54;;;;;;;11.98;6.80;;;3.90;99.90;;;;;;6220296;23;20028;-86
2022/01/29 02:19:20;;;;;;;15.07;7.32;;;4.00;99.90;;;;;;6220073;23;20015;-86
2022/01/29 02:21:46;;;;;;;10.15;6.50;;;4.00;99.90;;;;;;6220106;23;20021;-85
2022/01/29 02:24:12;;;;;;;12.07;7.03;;;4.00;99.90;;;;;;6220213;23;20078;-86
2022/01/29 02:26:37;;;;;;;10.75;7.07;;;3.90;99.90;;;;;;6220011;23;20003;-86
2022/01/29 02:29:04;;;;;;;11.25;7.20;;;4.00;99.90;;;;;;6219882;23;20095;-86
2022/01/29 02:31:29;;;;;;;11.05;6.43;;;3.90;99.90;;;;;;6219966;23;20399;-85
2022/01/29 02:33:55;;;;;;;14.95;6.63;;;4.00;99.90;;;;;;6246768;23;20031;-85
2022/01/29 02:36:21;;;;;;;12.13;6.28;;;4.00;99.90;;;;;;6219870;23;20042;-86
2022/01/29 02:38:46;;;;;;;11.52;6.47;;;3.90;99.90;;;;;;6219684;23;20481;-85
2022/01/29 02:41:12;;;;;;;10.32;6.07;;;4.00;99.90;;;;;;6246669;23;20000;-85
2022/01/29 02:43:46;;;;;;;10.88;6.72;;;3.90;99.90;;;;;;6219737;23;20000;-85
2022/01/29 02:48:50;;;;;;;10.00;6.07;;;3.90;99.90;;;;;;6246473;23;20241;-85
2022/01/29 02:51:16;;;;;;;9.48;6.10;;;4.00;99.90;;;;;;6219772;23;20031;-85
2022/01/29 02:53:42;;;;;;;13.95;6.82;;;3.90;99.90;;;;;;6219824;23;20014;-85
2022/01/29 02:56:09;;;;;;;8.63;6.13;;;3.90;99.90;;;;;;6246507;23;19996;-85
2022/01/29 02:58:35;;;;;;;10.75;5.75;;;3.90;99.90;;;;;;6219564;23;20024;-85
2022/01/29 03:01:01;;;;;;;9.43;5.95;;;3.90;99.90;;;;;;6219549;23;20061;-85
2022/01/29 03:03:27;;;;;;;12.02;6.30;;;3.90;99.90;;;;;;6219621;23;20008;-85
2022/01/29 03:05:52;;;;;;;9.05;5.45;;;3.90;99.90;;;;;;6219528;23;20000;-85
2022/01/29 03:08:18;;;;;;;9.80;5.80;;;3.90;99.90;;;;;;6219458;23;20050;-85
2022/01/29 03:10:47;;;;;;;11.32;5.82;;;3.90;99.90;;;;;;6219296;23;20004;-85
2022/01/29 03:13:13;;;;;;;9.43;6.20;;;3.90;99.90;;;;;;6219614;23;20031;-85
2022/01/29 03:15:39;;;;;;;8.95;5.22;;;3.90;99.90;;;;;;6246689;23;20046;-85
2022/01/29 03:18:05;;;;;;;10.90;6.00;;;3.90;99.90;;;;;;6219438;23;20000;-85
2022/01/29 03:20:30;;;;;;;8.88;5.78;;;3.90;99.90;;;;;;6219243;23;20004;-85
2022/01/29 03:22:57;;;;;;;7.32;5.03;;;3.90;99.90;;;;;;6220447;23;20000;-85
2022/01/29 03:25:22;;;;;;;9.20;5.30;;;3.90;99.90;;;;;;6219394;23;20000;-85
2022/01/29 03:27:48;;;;;;;10.35;5.50;;;3.90;99.90;;;;;;6219380;23;20074;-85
2022/01/29 03:30:14;;;;;;;9.18;5.70;;;3.90;99.90;;;;;;6246488;23;20368;-85
2022/01/29 03:32:40;;;;;;;8.18;5.47;;;3.90;99.90;;;;;;6219230;23;20004;-85
2022/01/29 03:35:06;;;;;;;9.40;5.80;;;3.90;99.90;;;;;;6219184;23;20426;-85
2022/01/29 03:37:32;;;;;;;7.80;4.82;;;3.90;99.90;;;;;;6246405;23;20000;-85
2022/01/29 03:40:01;;;;;;;7.35;5.10;;;3.90;99.90;;;;;;6246048;23;20010;-86
2022/01/29 03:42:30;;;;;;;7.95;4.97;;;3.90;99.90;;;;;;6219285;23;20008;-85
2022/01/29 03:44:57;;;;;;;11.27;5.30;;;3.90;99.90;;;;;;6246061;23;20000;-85
2022/01/29 03:47:23;;;;;;;8.23;5.47;;;3.90;99.90;;;;;;6219163;23;20000;-86
2022/01/29 03:49:48;;;;;;;9.02;4.50;;;3.90;99.90;;;;;;6219419;23;20090;-86
2022/01/29 03:52:14;;;;;;;9.95;4.88;;;3.90;99.90;;;;;;6246459;23;20000;-85
2022/01/29 03:54:40;;;;;;;7.65;4.55;;;3.90;99.90;;;;;;6219360;23;20005;-85
2022/01/29 03:57:05;;;;;;;8.07;5.15;;;3.90;99.90;;;;;;6219344;23;20004;-86
2022/01/29 03:59:31;;;;;;;6.68;4.50;;;3.90;99.90;;;;;;6245952;23;20302;-86
2022/01/29 04:01:57;;;;;;;8.05;4.70;;;3.90;99.90;;;;;;6219194;23;20491;-85
2022/01/29 04:04:22;;;;;;;6.20;4.43;;;3.90;99.90;;;;;;6219185;23;20103;-86
2022/01/29 04:06:50;;;;;;;8.70;5.18;;;3.90;99.90;;;;;;6219121;23;20007;-85
2022/01/29 04:09:17;;;;;;;6.75;4.57;;;3.90;99.90;;;;;;6219096;23;20004;-85
2022/01/29 04:11:44;;;;;;;7.47;4.40;;;3.90;99.90;;;;;;6219184;23;20000;-85
2022/01/29 04:14:16;;;;;;;6.93;4.30;;;3.90;99.90;;;;;;6219054;23;20012;-85
2022/01/29 04:16:41;;;;;;;7.35;4.05;;;3.90;99.90;;;;;;6219162;23;20027;-85
2022/01/29 04:19:07;;;;;;;6.40;4.25;;;3.90;99.90;;;;;;6218960;23;20011;-85
2022/01/29 04:21:33;;;;;;;8.25;4.45;;;3.90;99.90;;;;;;6219136;23;20079;-85
2022/01/29 04:23:59;;;;;;;6.70;4.20;;;3.90;99.90;;;;;;6221103;23;20206;-85
2022/01/29 04:26:24;;;;;;;7.70;4.03;;;3.90;99.90;;;;;;6221028;23;20027;-85
2022/01/29 04:28:51;;;;;;;6.45;3.78;;;3.90;99.90;;;;;;6220968;23;20008;-85
2022/01/29 04:31:20;;;;;;;6.18;4.03;;;3.90;99.90;;;;;;6221120;23;20007;-85
2022/01/29 04:33:46;;;;;;;8.75;3.80;;;3.90;99.90;;;;;;6221041;23;20011;-86
2022/01/29 04:36:12;;;;;;;7.50;4.10;;;3.90;99.90;;;;;;6220978;23;20008;-85
2022/01/29 04:38:38;;;;;;;6.55;4.10;;;3.80;99.90;;;;;;6247826;23;20122;-85
2022/01/29 04:41:05;;;;;;;6.55;3.72;;;3.90;99.90;;;;;;6221126;23;20313;-86
2022/01/29 04:43:36;;;;;;;7.38;3.60;;;3.90;99.90;;;;;;6247861;23;19996;-86
2022/01/29 04:46:02;;;;;;;9.75;4.38;;;3.80;99.90;;;;;;6221104;23;20332;-85
2022/01/29 04:48:28;;;;;;;8.82;3.90;;;3.90;99.90;;;;;;6247654;23;20012;-86
2022/01/29 04:50:54;;;;;;;6.20;3.55;;;3.90;99.90;;;;;;6221024;23;20010;-85
2022/01/29 04:53:20;;;;;;;6.05;3.65;;;3.90;99.90;;;;;;6220982;23;20445;-85
2022/01/29 04:55:46;;;;;;;6.40;3.20;;;3.90;99.90;;;;;;6220953;23;20004;-85
2022/01/29 04:58:12;;;;;;;4.88;3.28;;;3.90;99.90;;;;;;6220969;23;20341;-86
2022/01/29 05:00:38;;;;;;;4.63;3.03;;;3.90;99.90;;;;;;6220784;23;20027;-85
2022/01/29 05:03:11;;;;;;;5.13;3.40;;;3.90;99.90;;;;;;6220800;23;20000;-85
2022/01/29 05:05:38;;;;;;;6.60;3.13;;;3.80;99.90;;;;;;6220659;23;20050;-85
2022/01/29 05:08:04;;;;;;;7.18;3.50;;;3.80;99.90;;;;;;6220689;23;20083;-85
2022/01/29 05:10:30;;;;;;;4.75;2.88;;;3.90;99.90;;;;;;6220627;23;20063;-85
2022/01/29 05:13:03;;;;;;;5.32;3.17;;;3.80;99.90;;;;;;6220677;23;20008;-85
2022/01/29 05:15:37;;;;;;;5.63;3.13;;;3.90;99.90;;;;;;6221361;23;20008;-85
2022/01/29 05:29:02;;;;;;;;;;;3.80;99.90;;;;;;6248265;23;20015;-85
2022/01/29 05:31:27;;;;;;;6.60;3.05;;;3.80;99.90;;;;;;6220868;23;19907;-85
2022/01/29 05:33:53;;;;;;;4.40;2.80;;;3.80;99.90;;;;;;6220150;23;20008;-85
2022/01/29 05:36:19;;;;;;;5.95;2.88;;;3.80;99.90;;;;;;6220476;23;20014;-85
2022/01/29 05:38:44;;;;;;;5.60;3.20;;;3.80;99.90;;;;;;6220319;23;20429;-85
2022/01/29 05:41:10;;;;;;;4.88;2.80;;;3.80;99.90;;;;;;6220425;23;20004;-85
2022/01/29 05:43:36;;;;;;;4.60;2.83;;;3.80;99.90;;;;;;6220373;23;20008;-85
2022/01/29 05:46:02;;;;;;;5.25;2.50;;;3.80;99.90;;;;;;6220220;23;20023;-85
2022/01/29 05:48:27;;;;;;;5.32;2.70;;;3.80;99.90;;;;;;6220109;23;20103;-85
2022/01/29 05:50:53;;;;;;;3.53;2.75;;;3.80;99.90;;;;;;6247137;23;20001;-85
2022/01/29 05:53:19;;;;;;;5.40;2.80;;;3.80;99.90;;;;;;6220391;23;20008;-85
2022/01/29 05:55:45;;;;;;;4.93;2.65;;;3.80;99.90;;;;;;6220301;23;20095;-86
2022/01/29 05:58:10;;;;;;;4.70;2.83;;;3.80;99.90;;;;;;6220322;23;20126;-86
2022/01/29 06:00:36;;;;;;;3.67;2.38;;;3.80;99.90;;;;;;6220209;23;20011;-86
2022/01/29 06:03:07;;;;;;;6.18;2.92;;;3.80;99.90;;;;;;6220122;23;20032;-86
2022/01/29 06:05:34;;;;;;;3.83;2.60;;;3.80;99.90;;;;;;6247436;23;20022;-86
2022/01/29 06:08:00;;;;;;;4.18;2.88;;;3.80;99.90;;;;;;6220220;23;20015;-85
2022/01/29 06:10:27;;;;;;;5.22;2.72;;;3.80;99.90;;;;;;6220584;23;20031;-86
2022/01/29 06:13:08;;;;;;;4.22;2.45;;;3.80;99.90;;;;;;6220154;23;20035;-86
2022/01/29 06:15:39;;;;;;;6.35;2.88;;;3.80;99.90;;;;;;6220105;23;20008;-85
2022/01/29 06:18:05;;;;;;;6.13;2.70;;;3.80;99.90;;;;;;6220080;23;20004;-86
2022/01/29 06:20:31;;;;;;;4.35;2.50;;;3.80;99.90;;;;;;6219917;23;20054;-86
2022/01/29 06:22:57;;;;;;;4.32;2.50;;;3.80;99.90;;;;;;6219930;23;20008;-85
2022/01/29 06:25:23;;;;;;;4.80;2.60;;;3.80;99.90;;;;;;6220073;23;20332;-85
2022/01/29 06:27:49;;;;;;;5.28;2.90;;;3.80;99.90;;;;;;6219908;23;20031;-85
2022/01/29 06:30:15;;;;;;;4.45;2.78;;;3.80;99.90;;;;;;6219926;23;20336;-86
2022/01/29 06:32:41;;;;;;;4.13;2.50;;;3.80;99.90;;;;;;6219808;23;20012;-85
2022/01/29 06:35:08;;;;;;;3.47;2.28;;;3.80;99.90;;;;;;6246730;23;20007;-86
2022/01/29 06:37:34;;;;;;;4.13;2.10;;;3.80;99.90;;;;;;6219822;23;20373;-86
2022/01/29 06:39:59;;;;;;;3.72;2.40;;;3.80;99.90;;;;;;6219641;23;20032;-85
2022/01/29 06:42:25;;;;;;;5.70;2.70;;;3.80;99.90;;;;;;6246653;23;20069;-85
2022/01/29 06:44:51;;;;;;;5.00;2.88;;;3.80;99.90;;;;;;6219710;23;20464;-85
2022/01/29 06:47:17;;;;;;;4.40;2.70;;;3.80;99.90;;;;;;6245882;23;20027;-85
2022/01/29 06:49:43;;;;;;;3.75;2.60;;;3.80;99.90;;;;;;6220099;23;20012;-85
2022/01/29 06:52:08;;;;;;;4.18;2.40;;;3.80;99.90;;;;;;6219776;23;20004;-85
2022/01/29 06:54:34;;;;;;;4.43;2.38;;;3.80;99.90;;;;;;6219691;23;20011;-85
2022/01/29 06:57:00;;;;;;;2.92;2.20;;;3.80;99.90;;;;;;6219605;23;20039;-85
2022/01/29 06:59:25;;;;;;;4.57;2.63;;;3.80;99.90;;;;;;6219580;23;20004;-85
2022/01/29 07:01:51;;;;;;;6.57;2.83;;;3.80;99.90;;;;;;6219607;23;20346;-85
2022/01/29 07:04:17;;;;;;;4.43;2.67;;;3.80;99.90;;;;;;6219517;23;20000;-85
2022/01/29 07:06:42;;;;;;;4.10;2.28;;;3.80;99.90;;;;;;6246301;23;20000;-85
2022/01/29 07:09:09;;;;;;;3.28;2.15;;;3.80;99.90;;;;;;6219536;23;20093;-85
2022/01/29 07:11:34;;;;;;;4.85;2.80;;;3.80;99.90;;;;;;6219390;23;20123;-85
2022/01/29 07:14:03;;;;;;;3.85;2.70;;;3.80;99.90;;;;;;6219517;23;20437;-85
2022/01/29 07:16:31;;;;;;;4.68;2.50;;;3.80;99.90;;;;;;6246259;23;20476;-85
2022/01/29 07:18:56;;;;;;;4.03;2.55;;;3.80;99.90;;;;;;6219314;23;20460;-85
2022/01/29 07:21:22;;;;;;;5.85;2.92;;;3.80;99.90;;;;;;6219370;23;20000;-85
2022/01/29 07:23:48;;;;;;;5.82;2.75;;;3.80;99.90;;;;;;6246244;23;20071;-85
2022/01/29 07:26:14;;;;;;;5.32;2.63;;;3.80;99.90;;;;;;6246552;23;20003;-84
2022/01/29 07:28:39;;;;;;;4.70;3.10;;;3.80;99.90;;;;;;6219301;23;20004;-85
2022/01/29 07:31:06;;;;;;;5.07;3.00;;;3.70;99.90;;;;;;6219300;23;20055;-85
2022/01/29 07:33:32;;;;;;;4.28;3.10;;;3.80;99.90;;;;;;6246172;23;20436;-85
2022/01/29 07:35:58;;;;;;;5.25;2.70;;;3.80;99.90;;;;;;6219321;23;20004;-85
2022/01/29 07:38:24;;;;;;;4.85;3.10;;;3.80;99.90;;;;;;6219193;23;20417;-85
2022/01/29 07:40:50;;;;;;;6.53;2.78;;;3.80;99.90;;;;;;6219083;23;20014;-85
2022/01/29 07:43:16;;;;;;;4.75;2.88;;;3.80;99.90;;;;;;6246073;23;20003;-85
2022/01/29 07:45:41;;;;;;;4.22;2.80;;;3.80;99.90;;;;;;6219167;23;20000;-85
2022/01/29 07:48:07;;;;;;;4.40;3.00;;;3.80;99.90;;;;;;6214033;23;20095;-86
2022/01/29 07:50:33;;;;;;;4.82;3.13;;;3.80;99.90;;;;;;6215482;23;20011;-86
2022/01/29 07:52:59;;;;;;;5.80;3.00;;;3.80;99.90;;;;;;6215743;23;20004;-84
2022/01/29 07:55:29;;;;;;;5.72;3.15;;;3.80;99.90;;;;;;6214176;23;20096;-85
2022/01/29 07:57:55;;;;;;;6.00;3.05;;;3.80;99.90;;;;;;6213959;23;20001;-85
2022/01/29 08:00:21;;;;;;;5.30;3.03;;;3.80;99.90;;;;;;6214098;23;20388;-85
2022/01/29 08:02:47;;;;;;;7.43;3.13;;;3.80;99.90;;;;;;6215676;23;19997;-85
2022/01/29 08:05:12;;;;;;;5.53;3.20;;;3.80;99.90;;;;;;6214038;23;20000;-85
2022/01/29 08:07:38;;;;;;;5.65;2.92;;;3.80;99.90;;;;;;6214165;23;20005;-85
2022/01/29 08:10:05;;;;;;;5.38;3.00;;;3.80;99.90;;;;;;6215687;23;20007;-85
2022/01/29 08:12:31;;;;;;;6.45;3.63;;;3.80;99.90;;;;;;6214049;23;20009;-86
2022/01/29 08:14:57;;;;;;;5.03;3.15;;;3.80;99.90;;;;;;6214140;23;20012;-86
2022/01/29 08:17:22;;;;;;;5.47;3.40;;;3.80;99.90;;;;;;6214022;23;20489;-85
2022/01/29 08:19:49;;;;;;;5.07;2.92;;;3.80;99.90;;;;;;6213943;23;20036;-85
2022/01/29 08:22:16;;;;;;;4.75;3.17;;;3.90;99.90;;;;;;6214052;23;20043;-86
2022/01/29 08:24:42;;;;;;;4.43;2.90;;;3.90;99.90;;;;;;6214003;23;20001;-86
2022/01/29 08:27:07;;;;;;;4.80;3.15;;;3.90;99.90;;;;;;6214049;23;20001;-86
2022/01/29 08:29:33;;;;;;;5.90;3.75;;;4.00;99.90;;;;;;6213947;23;20036;-86
2022/01/29 08:31:59;;;;;;;4.50;3.20;;;4.00;99.90;;;;;;6215512;23;20016;-86
2022/01/29 08:34:25;;;;;;;5.97;3.40;;;4.00;99.90;;;;;;6213985;23;20012;-85
2022/01/29 08:36:51;;;;;;;4.40;3.17;;;4.00;99.90;;;;;;6215843;23;20075;-86
2022/01/29 08:39:17;;;;;;;4.60;3.30;;;4.00;99.90;;;;;;6213870;23;20031;-85
2022/01/29 08:41:42;;;;;;;4.88;3.17;;;4.00;99.90;;;;;;6213966;23;20037;-86
2022/01/29 08:44:08;;;;;;;5.18;3.65;;;4.00;99.90;;;;;;6213901;23;20000;-86
2022/01/29 08:46:34;;;;;;;7.57;3.30;;;4.00;99.90;;;;;;6213838;23;20008;-86
2022/01/29 08:48:59;;;;;;;5.20;3.00;;;3.90;99.90;;;;;;6213681;23;20147;-86
2022/01/29 08:51:26;;;;;;;6.55;3.92;;;3.90;99.90;;;;;;6215470;23;20001;-83
2022/01/29 08:53:51;;;;;;;7.78;3.45;;;4.00;99.90;;;;;;6213824;23;20094;-86
2022/01/29 08:56:17;;;;;;;5.32;3.33;;;4.00;99.90;;;;;;6213911;23;20433;-85
2022/01/29 08:58:43;;;;;;;5.97;3.47;;;4.20;99.90;;;;;;6215368;23;20050;-86
2022/01/29 09:01:10;;;;;;;5.47;3.53;;;4.40;99.90;;;;;;6213797;23;20051;-85
2022/01/29 09:03:36;;;;;;;4.53;3.50;;;4.40;99.90;;;;;;6213856;23;20008;-85
2022/01/29 09:06:03;;;;;;;5.72;3.22;;;4.40;99.90;;;;;;6213751;23;20001;-85
2022/01/29 09:08:29;;;;;;;5.65;3.45;;;4.30;99.90;;;;;;6215413;23;20417;-86
2022/01/29 09:10:58;;;;;;;5.40;3.95;;;4.30;99.90;;;;;;6215556;23;20012;-85
2022/01/29 09:13:25;;;;;;;5.40;3.78;;;4.20;99.90;;;;;;6215653;23;20039;-85
2022/01/29 09:15:50;;;;;;;5.43;3.05;;;4.10;99.90;;;;;;6216004;23;20005;-86
2022/01/29 09:18:16;;;;;;;5.53;3.33;;;4.10;99.90;;;;;;6215613;23;20433;-85
2022/01/29 09:20:42;;;;;;;5.13;3.47;;;4.20;99.90;;;;;;6215459;23;20016;-86
2022/01/29 09:23:11;;;;;;;5.72;3.78;;;4.20;99.90;;;;;;6215528;23;20036;-86
2022/01/29 09:25:38;;;;;;;5.70;3.90;;;4.20;99.90;;;;;;6215574;23;20001;-86
2022/01/29 09:28:08;;;;;;;6.38;4.00;;;4.20;99.90;;;;;;6217105;23;19997;-85
2022/01/29 09:30:35;;;;;;;5.25;3.55;;;4.20;99.90;;;;;;6215501;23;20074;-86
2022/01/29 09:33:01;;;;;;;5.45;3.72;;;4.20;99.90;;;;;;6215526;23;20009;-85
2022/01/29 09:35:27;;;;;;;4.82;3.38;;;4.30;99.90;;;;;;6215568;23;20009;-86
2022/01/29 09:37:54;;;;;;;4.78;2.95;;;4.30;99.90;;;;;;6215415;23;20438;-85
2022/01/29 09:40:20;;;;;;;5.22;3.40;;;4.30;99.90;;;;;;6216870;23;20082;-86
2022/01/29 09:42:47;;;;;;;4.82;3.35;;;4.50;99.90;;;;;;6215252;23;20001;-85
2022/01/29 09:45:15;;;;;;;6.75;3.83;;;5.00;99.90;;;;;;6215246;23;20058;-85
2022/01/29 09:47:43;;;;;;;6.65;4.05;;;5.40;99.90;;;;;;6220058;23;20012;-84
2022/01/29 09:50:10;;;;;;;4.95;3.53;;;5.70;99.90;;;;;;6220545;23;20008;-85
2022/01/29 09:52:36;;;;;;;5.25;3.30;;;5.50;99.90;;;;;;6220248;23;20050;-85
2022/01/29 09:55:03;;;;;;;5.80;3.55;;;5.50;99.90;;;;;;6247113;23;20004;-85
2022/01/29 09:57:29;;;;;;;6.63;3.90;;;5.50;99.90;;;;;;6220174;23;20031;-84
2022/01/29 09:59:55;;;;;;;5.25;3.53;;;5.70;99.90;;;;;;6220225;23;20008;-86
2022/01/29 10:02:21;;;;;;;7.85;3.80;;;5.80;99.90;;;;;;6247100;23;20000;-84
2022/01/29 10:04:48;;;;;;;5.05;3.28;;;5.80;99.90;;;;;;6220200;23;20425;-82
2022/01/29 10:07:19;;;;;;;5.32;3.10;;;5.90;99.90;;;;;;6220087;23;20004;-85
2022/01/29 10:09:45;;;;;;;5.85;3.80;;;5.80;99.90;;;;;;6220292;23;20341;-84
2022/01/29 10:12:21;;;;;;;5.78;3.50;;;5.60;99.90;;;;;;6220077;23;20004;-86
2022/01/29 10:14:53;;;;;;;5.72;3.63;;;5.50;99.90;;;;;;6220173;23;20026;-85
2022/01/29 10:17:46;;;;;;;5.68;3.60;;;5.30;99.90;;;;;;6220036;23;20016;-85
2022/01/29 10:20:26;;;;;;;5.43;3.45;;;5.20;99.90;;;;;;6201933;23;20039;-86
2022/01/29 10:23:02;;;;;;;5.43;3.30;;;5.10;99.90;;;;;;6219986;23;20158;-86
2022/01/29 10:25:32;;;;;;;6.40;3.42;;;5.00;99.90;;;;;;6219914;23;20008;-85
2022/01/29 10:28:12;;;;;;;5.72;3.30;;;4.90;99.90;;;;;;6219781;23;19997;-86
2022/01/29 10:30:56;;;;;;;5.13;3.22;;;4.80;99.90;;;;;;6219947;23;20008;-84
2022/01/29 10:33:33;;;;;;;5.82;3.80;;;4.60;99.90;;;;;;6219995;23;20004;-84
2022/01/29 10:36:04;;;;;;;7.05;3.38;;;4.60;99.90;;;;;;6219965;23;20012;-86
2022/01/29 10:38:52;;;;;;;4.43;3.10;;;4.60;99.90;;;;;;6219822;23;20187;-85
2022/01/29 10:41:21;;;;;;;4.30;2.95;;;4.50;99.90;;;;;;6219931;23;20028;-86
2022/01/29 10:46:42;;;;;;;5.50;3.17;;;4.50;99.90;;;;;;6246641;23;20054;-85
2022/01/29 10:49:14;;;;;;;4.82;3.05;;;4.40;99.90;;;;;;6219617;23;20019;-85
2022/01/29 10:51:40;;;;;;;4.53;3.10;;;4.40;99.90;;;;;;6220824;23;20011;-86
2022/01/29 10:54:18;;;;;;;4.45;3.08;;;4.40;99.90;;;;;;6219654;23;20034;-86
2022/01/29 10:56:57;;;;;;;5.30;3.42;;;4.40;99.90;;;;;;6219563;23;20004;-85
2022/01/29 10:59:23;;;;;;;4.55;2.95;;;4.30;99.90;;;;;;6220564;23;20011;-85
2022/01/29 11:01:51;;;;;;;4.53;2.85;;;4.40;99.90;;;;;;6219620;23;20372;-85
2022/01/29 11:04:17;;;;;;;4.68;3.25;;;4.30;99.90;;;;;;6219648;23;20388;-86
2022/01/29 11:06:46;;;;;;;3.88;2.80;;;4.30;99.90;;;;;;6219434;23;19997;-85
2022/01/29 11:09:13;;;;;;;4.65;2.80;;;4.30;99.90;;;;;;6219571;23;20004;-86
2022/01/29 11:11:40;;;;;;;4.28;2.88;;;4.20;99.90;;;;;;6219438;23;20083;-86
2022/01/29 11:14:07;;;;;;;4.13;2.55;;;4.20;99.90;;;;;;6246705;23;20004;-86
2022/01/29 11:16:34;;;;;;;3.90;2.80;;;4.20;99.90;;;;;;6219531;23;20007;-86
2022/01/29 11:19:00;;;;;;;3.85;2.72;;;4.20;99.90;;;;;;6246493;23;20012;-86
2022/01/29 11:21:26;;;;;;;4.43;2.78;;;4.20;99.90;;;;;;6219444;23;20451;-85
2022/01/29 11:23:53;;;;;;;3.22;2.47;;;4.20;99.90;;;;;;6219389;23;20007;-86
2022/01/29 11:26:19;;;;;;;4.63;2.70;;;4.30;99.90;;;;;;6219392;23;20000;-86
2022/01/29 11:28:45;;;;;;;3.65;2.33;;;4.30;99.90;;;;;;6246193;23;20015;-86
2022/01/29 11:31:12;;;;;;;3.45;2.70;;;4.30;99.90;;;;;;6219300;22;20488;-86
2022/01/29 11:33:57;;;;;;;3.70;2.70;;;4.30;99.90;;;;;;6219141;23;20422;-86
2022/01/29 11:36:22;;;;;;;;;;;4.30;99.90;;;;;;6246677;23;20149;-86
2022/01/29 11:38:48;;;;;;;3.35;2.40;;;4.30;99.90;;;;;;6246054;23;20320;-85
2022/01/29 11:41:14;;;;;;;4.22;2.42;;;4.30;99.90;;;;;;6219356;23;20108;-86
2022/01/29 11:43:39;;;;;;;3.95;2.42;;;4.30;99.90;;;;;;6219307;23;20008;-85
2022/01/29 11:46:31;;;;;;;3.10;2.03;;;4.30;99.90;;;;;;6219296;23;20079;-86
2022/01/29 11:48:59;;;;;;;3.28;2.35;;;4.30;99.90;;;;;;6245993;23;20504;-86
2022/01/29 11:51:44;;;;;;;2.72;1.98;;;4.30;99.90;;;;;;6246591;23;20405;-89
2022/01/29 11:54:14;;;;;;;4.72;2.47;;;4.30;99.90;;;;;;6219572;23;20031;-88
2022/01/29 11:56:41;;;;;;;3.67;1.85;;;4.30;99.90;;;;;;6219513;23;20027;-88
2022/01/29 11:59:19;;;;;;;4.18;2.47;;;4.30;99.90;;;;;;6219596;23;20015;-88
2022/01/29 12:01:52;;;;;;;4.20;2.25;;;4.30;99.90;;;;;;6246258;23;20007;-88
2022/01/29 12:04:19;;;;;;;2.53;1.80;;;4.30;99.90;;;;;;6219604;23;20447;-88
2022/01/29 12:09:44;;;;;;;2.35;1.90;;;4.30;99.90;;;;;;6239628;23;20452;-89
2022/01/29 12:12:24;;;;;;;2.30;1.70;;;4.30;99.90;;;;;;6219577;23;20035;-88
2022/01/29 12:15:14;;;;;;;3.28;1.85;;;4.30;99.90;;;;;;6219467;23;20012;-88
2022/01/29 12:17:46;;;;;;;3.22;2.25;;;4.30;99.90;;;;;;6218932;23;20119;-89
2022/01/29 12:20:15;;;;;;;2.83;2.13;;;4.30;99.90;;;;;;6219604;23;20008;-89
2022/01/29 12:22:43;;;;;;;3.63;2.30;;;4.30;99.90;;;;;;6219800;23;20004;-89
2022/01/29 12:25:14;;;;;;;5.75;2.50;;;4.30;99.90;;;;;;6223453;23;19996;-90
2022/01/29 12:27:39;;;;;;;3.38;2.03;;;4.30;99.90;;;;;;6237971;23;20010;-91
2022/01/29 12:30:06;;;;;;;2.45;1.98;;;4.30;99.90;;;;;;6232007;23;20000;-90
2022/01/29 12:32:32;;;;;;;3.40;2.10;;;4.30;99.90;;;;;;6247402;23;20082;-90
2022/01/29 12:34:59;;;;;;;3.83;2.33;;;4.40;99.90;;;;;;6220806;23;20433;-90
2022/01/29 12:37:24;;;;;;;4.03;2.17;;;4.40;99.90;;;;;;6219513;23;20005;-89
2022/01/29 12:39:50;;;;;;;3.42;2.33;;;4.30;99.90;;;;;;6246152;23;20014;-88
2022/01/29 12:42:29;;;;;;;3.20;2.20;;;4.30;99.90;;;;;;6219581;23;20007;-89
2022/01/29 12:44:57;;;;;;;3.47;2.40;;;4.40;99.90;;;;;;6220368;23;20003;-89
2022/01/29 12:47:36;;;;;;;3.88;2.50;;;4.40;99.90;;;;;;6221350;23;20000;-90
2022/01/29 12:50:03;;;;;;;3.13;2.10;;;4.40;99.90;;;;;;6221603;23;20050;-89
2022/01/29 12:52:30;;;;;;;2.40;1.88;;;4.40;99.90;;;;;;6221305;23;20008;-88
2022/01/29 12:55:01;;;;;;;3.35;2.10;;;4.40;99.90;;;;;;6221382;23;20008;-89
2022/01/29 12:57:44;;;;;;;3.03;2.00;;;4.40;99.90;;;;;;6221605;23;20014;-87
2022/01/29 13:00:13;;;;;;;2.70;1.83;;;4.40;99.90;;;;;;6221289;23;20004;-88
2022/01/29 13:02:39;;;;;;;2.78;1.70;;;4.40;99.90;;;;;;6221061;23;20000;-89
2022/01/29 13:05:05;;;;;;;2.58;1.80;;;4.40;99.90;;;;;;6221001;23;20026;-88
2022/01/29 13:07:34;;;;;;;2.33;1.88;;;4.40;99.90;;;;;;6221136;23;20401;-90
2022/01/29 13:10:00;;;;;;;3.20;2.10;;;4.40;99.90;;;;;;6248331;23;20011;-87
2022/01/29 13:12:26;;;;;;;2.38;1.88;;;4.40;99.90;;;;;;6248313;23;20000;-90
2022/01/29 13:14:52;;;;;;;2.38;1.85;;;4.40;99.90;;;;;;6221289;23;20004;-88